sensor_id;sensor_type;location;lat;lon;timestamp;pressure;altitude;pressure_sealevel;temperature;humidity
40073;BME280;25774;52.256;9.356;2022-12-05T00:02:09;100867.59;;;2.28;100.00
40073;BME280;25774;52.256;9.356;2022-12-05T00:04:35;100867.63;;;2.25;100.00
40073;BME280;25774;52.256;9.356;2022-12-05T00:07:00;100846.31;;;1.97;100.00
40073;BME280;25774;52.256;9.356;2022-12-05T00:09:26;100853.25;;;1.98;100.00
40073;BME280;25774;52.256;9.356;2022-12-05T00:11:51;100880.47;;;2.41;100.00
40073;BME280;25774;52.256;9.356;2022-12-05T00:14:16;100881.91;;;2.62;100.00
40073;BME280;25774;52.256;9.356;2022-12-05T00:16:42;100863.06;;;2.43;100.00
40073;BME280;25774;52.256;9.356;2022-12-05T00:19:11;100859.63;;;2.39;100.00
40073;BME280;25774;52.256;9.356;2022-12-05T00:21:37;100874.13;;;2.57;100.00
40073;BME280;25774;52.256;9.356;2022-12-05T00:24:05;100862.88;;;2.55;100.00
40073;BME280;25774;52.256;9.356;2022-12-05T00:26:30;100858.28;;;2.72;100.00
40073;BME280;25774;52.256;9.356;2022-12-05T00:28:58;100846.38;;;2.56;100.00
40073;BME280;25774;52.256;9.356;2022-12-05T00:31:25;100846.25;;;2.64;100.00
40073;BME280;25774;52.256;9.356;2022-12-05T00:33:52;100843.53;;;2.71;100.00
40073;BME280;25774;52.256;9.356;2022-12-05T00:36:20;100839.31;;;2.61;100.00
40073;BME280;25774;52.256;9.356;2022-12-05T00:38:46;100825.72;;;2.42;100.00
40073;BME280;25774;52.256;9.356;2022-12-05T00:41:15;100840.09;;;2.69;100.00
40073;BME280;25774;52.256;9.356;2022-12-05T00:43:41;100830.97;;;2.39;100.00
40073;BME280;25774;52.256;9.356;2022-12-05T00:46:10;100825.06;;;2.28;100.00
40073;BME280;25774;52.256;9.356;2022-12-05T00:48:37;100845.56;;;2.52;100.00
40073;BME280;25774;52.256;9.356;2022-12-05T00:51:11;100857.53;;;2.64;100.00
40073;BME280;25774;52.256;9.356;2022-12-05T00:53:37;100860.94;;;2.69;100.00
40073;BME280;25774;52.256;9.356;2022-12-05T00:56:09;100861.50;;;2.87;100.00
40073;BME280;25774;52.256;9.356;2022-12-05T00:58:35;100854.47;;;2.92;100.00
40073;BME280;25774;52.256;9.356;2022-12-05T01:01:10;100844.91;;;2.94;100.00
40073;BME280;25774;52.256;9.356;2022-12-05T01:03:36;100826.91;;;2.77;100.00
40073;BME280;25774;52.256;9.356;2022-12-05T01:06:02;100816.88;;;2.54;100.00
40073;BME280;25774;52.256;9.356;2022-12-05T01:08:31;100813.22;;;2.66;100.00
40073;BME280;25774;52.256;9.356;2022-12-05T01:10:57;100820.75;;;2.84;100.00
40073;BME280;25774;52.256;9.356;2022-12-05T01:13:23;100816.22;;;2.94;100.00
40073;BME280;25774;52.256;9.356;2022-12-05T01:15:49;100805.41;;;2.66;100.00
40073;BME280;25774;52.256;9.356;2022-12-05T01:18:15;100794.59;;;2.35;100.00
40073;BME280;25774;52.256;9.356;2022-12-05T01:20:41;100779.31;;;2.10;100.00
40073;BME280;25774;52.256;9.356;2022-12-05T01:23:07;100814.94;;;2.67;100.00
40073;BME280;25774;52.256;9.356;2022-12-05T01:25:32;100807.28;;;2.56;100.00
40073;BME280;25774;52.256;9.356;2022-12-05T01:27:58;100808.31;;;2.46;100.00
40073;BME280;25774;52.256;9.356;2022-12-05T01:30:23;100817.78;;;2.51;100.00
40073;BME280;25774;52.256;9.356;2022-12-05T01:32:49;100819.75;;;2.37;100.00
40073;BME280;25774;52.256;9.356;2022-12-05T01:35:14;100827.50;;;2.39;100.00
40073;BME280;25774;52.256;9.356;2022-12-05T01:37:40;100843.69;;;2.61;100.00
40073;BME280;25774;52.256;9.356;2022-12-05T01:40:06;100833.22;;;2.65;100.00
40073;BME280;25774;52.256;9.356;2022-12-05T01:42:32;100827.94;;;2.68;100.00
40073;BME280;25774;52.256;9.356;2022-12-05T01:45:01;100828.72;;;2.75;100.00
40073;BME280;25774;52.256;9.356;2022-12-05T01:47:28;100809.72;;;2.67;100.00
40073;BME280;25774;52.256;9.356;2022-12-05T01:49:56;100810.72;;;2.60;100.00
40073;BME280;25774;52.256;9.356;2022-12-05T01:52:24;100798.09;;;2.33;100.00
40073;BME280;25774;52.256;9.356;2022-12-05T01:54:54;100823.44;;;2.76;100.00
40073;BME280;25774;52.256;9.356;2022-12-05T01:57:21;100810.66;;;2.63;100.00
40073;BME280;25774;52.256;9.356;2022-12-05T01:59:54;100805.75;;;2.43;100.00
40073;BME280;25774;52.256;9.356;2022-12-05T02:02:26;100806.56;;;2.46;100.00
40073;BME280;25774;52.256;9.356;2022-12-05T02:05:03;100820.03;;;2.74;100.00
40073;BME280;25774;52.256;9.356;2022-12-05T02:07:31;100818.44;;;2.66;100.00
40073;BME280;25774;52.256;9.356;2022-12-05T02:09:56;100817.47;;;2.71;100.00
40073;BME280;25774;52.256;9.356;2022-12-05T02:12:22;100823.44;;;2.78;100.00
40073;BME280;25774;52.256;9.356;2022-12-05T02:15:11;100815.88;;;2.61;100.00
40073;BME280;25774;52.256;9.356;2022-12-05T02:20:48;100825.34;;;2.67;100.00
40073;BME280;25774;52.256;9.356;2022-12-05T02:26:25;100827.91;;;2.71;100.00
40073;BME280;25774;52.256;9.356;2022-12-05T02:34:56;100813.53;;;2.46;100.00
40073;BME280;25774;52.256;9.356;2022-12-05T02:37:29;100788.91;;;2.06;100.00
40073;BME280;25774;52.256;9.356;2022-12-05T02:40:25;100824.69;;;2.55;100.00
40073;BME280;25774;52.256;9.356;2022-12-05T02:43:02;100810.19;;;2.36;100.00
40073;BME280;25774;52.256;9.356;2022-12-05T02:45:33;100799.00;;;2.29;100.00
40073;BME280;25774;52.256;9.356;2022-12-05T02:48:00;100793.94;;;2.20;100.00
40073;BME280;25774;52.256;9.356;2022-12-05T02:50:32;100822.22;;;2.46;100.00
40073;BME280;25774;52.256;9.356;2022-12-05T02:53:03;100826.97;;;2.75;100.00
40073;BME280;25774;52.256;9.356;2022-12-05T02:55:32;100817.00;;;2.45;100.00
40073;BME280;25774;52.256;9.356;2022-12-05T02:58:04;100809.16;;;2.48;100.00
40073;BME280;25774;52.256;9.356;2022-12-05T03:00:29;100811.03;;;2.40;100.00
40073;BME280;25774;52.256;9.356;2022-12-05T03:02:57;100812.03;;;2.29;100.00
40073;BME280;25774;52.256;9.356;2022-12-05T03:07:59;100844.00;;;2.93;100.00
40073;BME280;25774;52.256;9.356;2022-12-05T03:10:29;100833.72;;;2.86;100.00
40073;BME280;25774;52.256;9.356;2022-12-05T03:12:59;100826.97;;;2.74;100.00
40073;BME280;25774;52.256;9.356;2022-12-05T03:15:31;100833.50;;;2.99;100.00
40073;BME280;25774;52.256;9.356;2022-12-05T03:18:12;100812.72;;;2.95;100.00
40073;BME280;25774;52.256;9.356;2022-12-05T03:20:45;100802.75;;;2.69;100.00
40073;BME280;25774;52.256;9.356;2022-12-05T03:23:16;100812.03;;;2.84;100.00
40073;BME280;25774;52.256;9.356;2022-12-05T03:25:46;100789.28;;;2.39;100.00
40073;BME280;25774;52.256;9.356;2022-12-05T03:28:26;100804.69;;;2.56;100.00
40073;BME280;25774;52.256;9.356;2022-12-05T03:30:55;100810.72;;;2.60;100.00
40073;BME280;25774;52.256;9.356;2022-12-05T03:33:28;100810.56;;;2.69;100.00
40073;BME280;25774;52.256;9.356;2022-12-05T03:36:04;100813.69;;;2.89;100.00
40073;BME280;25774;52.256;9.356;2022-12-05T03:38:43;100814.34;;;3.02;100.00
40073;BME280;25774;52.256;9.356;2022-12-05T03:41:39;100806.66;;;2.93;100.00
40073;BME280;25774;52.256;9.356;2022-12-05T03:44:28;100786.97;;;2.76;100.00
40073;BME280;25774;52.256;9.356;2022-12-05T03:47:00;100775.13;;;2.57;100.00
40073;BME280;25774;52.256;9.356;2022-12-05T03:49:36;100774.03;;;2.70;100.00
40073;BME280;25774;52.256;9.356;2022-12-05T03:52:10;100770.16;;;2.42;100.00
40073;BME280;25774;52.256;9.356;2022-12-05T03:54:42;100769.97;;;2.54;100.00
40073;BME280;25774;52.256;9.356;2022-12-05T03:57:14;100771.03;;;2.42;100.00
40073;BME280;25774;52.256;9.356;2022-12-05T04:00:08;100786.47;;;2.54;100.00
40073;BME280;25774;52.256;9.356;2022-12-05T04:02:40;100789.16;;;2.50;100.00
40073;BME280;25774;52.256;9.356;2022-12-05T04:07:43;100800.03;;;2.73;100.00
40073;BME280;25774;52.256;9.356;2022-12-05T04:10:21;100815.81;;;3.15;100.00
40073;BME280;25774;52.256;9.356;2022-12-05T04:12:51;100801.75;;;3.25;100.00
40073;BME280;25774;52.256;9.356;2022-12-05T04:15:24;100793.13;;;3.20;100.00
40073;BME280;25774;52.256;9.356;2022-12-05T04:17:58;100780.78;;;3.29;100.00
40073;BME280;25774;52.256;9.356;2022-12-05T04:20:35;100757.28;;;2.84;100.00
40073;BME280;25774;52.256;9.356;2022-12-05T04:23:40;100752.13;;;2.82;100.00
40073;BME280;25774;52.256;9.356;2022-12-05T04:26:15;100749.88;;;2.61;100.00
40073;BME280;25774;52.256;9.356;2022-12-05T04:28:59;100786.50;;;3.04;100.00
40073;BME280;25774;52.256;9.356;2022-12-05T04:31:34;100785.16;;;3.28;100.00
40073;BME280;25774;52.256;9.356;2022-12-05T04:34:05;100774.59;;;3.36;100.00
40073;BME280;25774;52.256;9.356;2022-12-05T04:36:39;100759.28;;;3.17;100.00
40073;BME280;25774;52.256;9.356;2022-12-05T04:39:16;100769.34;;;3.37;100.00
40073;BME280;25774;52.256;9.356;2022-12-05T04:41:48;100757.16;;;3.38;100.00
40073;BME280;25774;52.256;9.356;2022-12-05T04:44:19;100745.22;;;3.26;100.00
40073;BME280;25774;52.256;9.356;2022-12-05T04:46:47;100742.56;;;3.28;100.00
40073;BME280;25774;52.256;9.356;2022-12-05T04:49:18;100744.38;;;3.24;100.00
40073;BME280;25774;52.256;9.356;2022-12-05T04:51:46;100742.69;;;3.21;100.00
40073;BME280;25774;52.256;9.356;2022-12-05T04:54:28;100734.91;;;3.20;100.00
40073;BME280;25774;52.256;9.356;2022-12-05T04:57:04;100740.81;;;3.30;100.00
40073;BME280;25774;52.256;9.356;2022-12-05T04:59:31;100744.16;;;3.35;100.00
40073;BME280;25774;52.256;9.356;2022-12-05T05:01:59;100736.72;;;3.16;100.00
40073;BME280;25774;52.256;9.356;2022-12-05T05:04:35;100729.81;;;3.12;100.00
40073;BME280;25774;52.256;9.356;2022-12-05T05:07:07;100747.59;;;3.37;100.00
40073;BME280;25774;52.256;9.356;2022-12-05T05:09:33;100728.63;;;3.30;100.00
40073;BME280;25774;52.256;9.356;2022-12-05T05:11:59;100731.19;;;3.32;100.00
40073;BME280;25774;52.256;9.356;2022-12-05T05:14:24;100732.00;;;3.34;100.00
40073;BME280;25774;52.256;9.356;2022-12-05T05:16:50;100732.25;;;3.21;100.00
40073;BME280;25774;52.256;9.356;2022-12-05T05:19:15;100738.06;;;3.36;100.00
40073;BME280;25774;52.256;9.356;2022-12-05T05:21:41;100721.88;;;3.20;100.00
40073;BME280;25774;52.256;9.356;2022-12-05T05:24:08;100726.28;;;3.16;100.00
40073;BME280;25774;52.256;9.356;2022-12-05T05:26:39;100725.22;;;3.26;100.00
40073;BME280;25774;52.256;9.356;2022-12-05T05:29:05;100728.56;;;3.32;100.00
40073;BME280;25774;52.256;9.356;2022-12-05T05:31:32;100731.28;;;3.27;100.00
40073;BME280;25774;52.256;9.356;2022-12-05T05:33:58;100728.63;;;3.29;100.00
40073;BME280;25774;52.256;9.356;2022-12-05T05:36:25;100730.38;;;3.30;100.00
40073;BME280;25774;52.256;9.356;2022-12-05T05:38:52;100728.72;;;3.25;100.00
40073;BME280;25774;52.256;9.356;2022-12-05T05:41:20;100715.97;;;3.10;100.00
40073;BME280;25774;52.256;9.356;2022-12-05T05:43:47;100708.50;;;2.90;100.00
40073;BME280;25774;52.256;9.356;2022-12-05T05:46:17;100715.47;;;2.91;100.00
40073;BME280;25774;52.256;9.356;2022-12-05T05:48:43;100707.50;;;2.51;100.00
40073;BME280;25774;52.256;9.356;2022-12-05T05:51:12;100741.16;;;3.11;100.00
40073;BME280;25774;52.256;9.356;2022-12-05T05:53:38;100736.22;;;2.97;100.00
40073;BME280;25774;52.256;9.356;2022-12-05T05:56:06;100743.66;;;3.16;100.00
40073;BME280;25774;52.256;9.356;2022-12-05T05:58:33;100751.25;;;3.30;100.00
40073;BME280;25774;52.256;9.356;2022-12-05T06:01:12;100757.91;;;3.43;100.00
40073;BME280;25774;52.256;9.356;2022-12-05T06:03:38;100730.09;;;2.98;100.00
40073;BME280;25774;52.256;9.356;2022-12-05T06:06:12;100729.19;;;3.01;100.00
40073;BME280;25774;52.256;9.356;2022-12-05T06:08:39;100742.75;;;3.18;100.00
40073;BME280;25774;52.256;9.356;2022-12-05T06:11:16;100735.72;;;3.22;100.00
40073;BME280;25774;52.256;9.356;2022-12-05T06:13:42;100738.19;;;3.30;100.00
40073;BME280;25774;52.256;9.356;2022-12-05T06:16:09;100740.03;;;3.24;100.00
40073;BME280;25774;52.256;9.356;2022-12-05T06:18:35;100734.69;;;3.31;100.00
40073;BME280;25774;52.256;9.356;2022-12-05T06:21:01;100745.91;;;3.34;100.00
40073;BME280;25774;52.256;9.356;2022-12-05T06:23:27;100739.94;;;3.29;100.00
40073;BME280;25774;52.256;9.356;2022-12-05T06:25:54;100737.34;;;3.29;100.00
40073;BME280;25774;52.256;9.356;2022-12-05T06:28:23;100728.00;;;3.17;100.00
40073;BME280;25774;52.256;9.356;2022-12-05T06:30:48;100738.31;;;3.22;100.00
40073;BME280;25774;52.256;9.356;2022-12-05T06:33:15;100717.16;;;2.94;100.00
40073;BME280;25774;52.256;9.356;2022-12-05T06:35:40;100740.13;;;3.20;100.00
40073;BME280;25774;52.256;9.356;2022-12-05T06:38:07;100730.59;;;3.17;100.00
40073;BME280;25774;52.256;9.356;2022-12-05T06:40:34;100728.00;;;3.17;100.00
40073;BME280;25774;52.256;9.356;2022-12-05T06:43:00;100729.75;;;3.15;100.00
40073;BME280;25774;52.256;9.356;2022-12-05T06:45:26;100743.28;;;3.36;100.00
40073;BME280;25774;52.256;9.356;2022-12-05T06:47:51;100736.69;;;3.18;100.00
40073;BME280;25774;52.256;9.356;2022-12-05T06:50:18;100734.66;;;3.32;100.00
40073;BME280;25774;52.256;9.356;2022-12-05T06:52:44;100734.88;;;3.21;100.00
40073;BME280;25774;52.256;9.356;2022-12-05T06:55:09;100732.19;;;3.26;100.00
40073;BME280;25774;52.256;9.356;2022-12-05T06:57:35;100720.28;;;3.13;100.00
40073;BME280;25774;52.256;9.356;2022-12-05T07:00:00;100712.84;;;2.91;100.00
40073;BME280;25774;52.256;9.356;2022-12-05T07:02:45;100720.75;;;2.87;100.00
40073;BME280;25774;52.256;9.356;2022-12-05T07:05:10;100729.19;;;3.01;100.00
40073;BME280;25774;52.256;9.356;2022-12-05T07:07:37;100749.66;;;3.22;100.00
40073;BME280;25774;52.256;9.356;2022-12-05T07:10:04;100740.13;;;3.20;100.00
40073;BME280;25774;52.256;9.356;2022-12-05T07:12:31;100718.25;;;2.82;100.00
40073;BME280;25774;52.256;9.356;2022-12-05T07:14:57;100731.53;;;2.68;100.00
40073;BME280;25774;52.256;9.356;2022-12-05T07:17:22;100745.75;;;2.98;100.00
40073;BME280;25774;52.256;9.356;2022-12-05T07:19:49;100735.66;;;2.80;100.00
40073;BME280;25774;52.256;9.356;2022-12-05T07:22:16;100746.91;;;2.80;100.00
40073;BME280;25774;52.256;9.356;2022-12-05T07:24:43;100731.78;;;2.51;100.00
40073;BME280;25774;52.256;9.356;2022-12-05T07:27:09;100727.72;;;2.35;100.00
40073;BME280;25774;52.256;9.356;2022-12-05T07:29:37;100731.47;;;2.20;100.00
40073;BME280;25774;52.256;9.356;2022-12-05T07:32:02;100768.03;;;2.67;100.00
40073;BME280;25774;52.256;9.356;2022-12-05T07:34:34;100767.06;;;2.72;100.00
40073;BME280;25774;52.256;9.356;2022-12-05T07:37:00;100755.91;;;2.64;100.00
40073;BME280;25774;52.256;9.356;2022-12-05T07:39:25;100754.38;;;2.51;100.00
40073;BME280;25774;52.256;9.356;2022-12-05T07:41:51;100766.06;;;2.81;100.00
40073;BME280;25774;52.256;9.356;2022-12-05T07:44:17;100749.81;;;2.65;100.00
40073;BME280;25774;52.256;9.356;2022-12-05T07:46:42;100763.44;;;2.81;100.00
40073;BME280;25774;52.256;9.356;2022-12-05T07:49:08;100759.25;;;2.72;100.00
40073;BME280;25774;52.256;9.356;2022-12-05T07:51:34;100764.41;;;2.75;100.00
40073;BME280;25774;52.256;9.356;2022-12-05T07:54:00;100755.78;;;2.70;100.00
40073;BME280;25774;52.256;9.356;2022-12-05T07:56:27;100760.91;;;2.76;100.00
40073;BME280;25774;52.256;9.356;2022-12-05T07:58:53;100765.41;;;2.68;100.00
40073;BME280;25774;52.256;9.356;2022-12-05T08:01:23;100760.06;;;2.76;100.00
40073;BME280;25774;52.256;9.356;2022-12-05T08:03:51;100757.53;;;2.71;100.00
40073;BME280;25774;52.256;9.356;2022-12-05T08:06:20;100755.09;;;2.62;100.00
40073;BME280;25774;52.256;9.356;2022-12-05T08:08:46;100750.75;;;2.61;100.00
40073;BME280;25774;52.256;9.356;2022-12-05T08:11:17;100750.63;;;2.67;100.00
40073;BME280;25774;52.256;9.356;2022-12-05T08:13:43;100743.06;;;2.53;100.00
40073;BME280;25774;52.256;9.356;2022-12-05T08:16:13;100746.41;;;2.60;100.00
40073;BME280;25774;52.256;9.356;2022-12-05T08:18:40;100758.50;;;2.66;100.00
40073;BME280;25774;52.256;9.356;2022-12-05T08:21:08;100736.09;;;2.54;100.00
40073;BME280;25774;52.256;9.356;2022-12-05T08:23:36;100744.72;;;2.58;100.00
40073;BME280;25774;52.256;9.356;2022-12-05T08:26:26;100750.53;;;2.73;100.00
40073;BME280;25774;52.256;9.356;2022-12-05T08:28:54;100746.97;;;2.79;100.00
40073;BME280;25774;52.256;9.356;2022-12-05T08:31:21;100746.06;;;2.82;100.00
40073;BME280;25774;52.256;9.356;2022-12-05T08:33:49;100740.16;;;2.70;100.00
40073;BME280;25774;52.256;9.356;2022-12-05T08:36:15;100740.31;;;2.61;100.00
40073;BME280;25774;52.256;9.356;2022-12-05T08:38:41;100738.56;;;2.63;100.00
40073;BME280;25774;52.256;9.356;2022-12-05T08:41:12;100761.53;;;2.89;100.00
40073;BME280;25774;52.256;9.356;2022-12-05T08:43:38;100744.72;;;2.59;100.00
40073;BME280;25774;52.256;9.356;2022-12-05T08:46:04;100757.28;;;2.84;100.00
40073;BME280;25774;52.256;9.356;2022-12-05T08:48:30;100765.97;;;2.86;100.00
40073;BME280;25774;52.256;9.356;2022-12-05T08:50:57;100761.59;;;2.88;100.00
40073;BME280;25774;52.256;9.356;2022-12-05T08:53:23;100764.19;;;2.88;100.00
40073;BME280;25774;52.256;9.356;2022-12-05T08:55:49;100750.56;;;2.72;100.00
40073;BME280;25774;52.256;9.356;2022-12-05T08:58:14;100750.81;;;2.56;100.00
40073;BME280;25774;52.256;9.356;2022-12-05T09:00:41;100750.69;;;2.64;100.00
40073;BME280;25774;52.256;9.356;2022-12-05T09:03:10;100753.28;;;2.66;100.00
40073;BME280;25774;52.256;9.356;2022-12-05T09:05:36;100765.09;;;2.85;100.00
40073;BME280;25774;52.256;9.356;2022-12-05T09:08:01;100749.78;;;2.68;100.00
40073;BME280;25774;52.256;9.356;2022-12-05T09:10:27;100754.13;;;2.66;100.00
40073;BME280;25774;52.256;9.356;2022-12-05T09:12:52;100751.69;;;2.57;100.00
40073;BME280;25774;52.256;9.356;2022-12-05T09:15:20;100771.22;;;2.83;100.00
40073;BME280;25774;52.256;9.356;2022-12-05T09:17:45;100777.69;;;3.10;100.00
40073;BME280;25774;52.256;9.356;2022-12-05T09:20:11;100746.38;;;2.63;100.00
40073;BME280;25774;52.256;9.356;2022-12-05T09:22:39;100743.69;;;2.14;100.00
40073;BME280;25774;52.256;9.356;2022-12-05T09:25:05;100746.63;;;1.91;100.00
40073;BME280;25774;52.256;9.356;2022-12-05T09:27:31;100782.31;;;2.43;100.00
40073;BME280;25774;52.256;9.356;2022-12-05T09:29:56;100796.72;;;2.64;100.00
40073;BME280;25774;52.256;9.356;2022-12-05T09:32:23;100784.03;;;2.44;100.00
40073;BME280;25774;52.256;9.356;2022-12-05T09:34:49;100797.63;;;2.63;100.00
40073;BME280;25774;52.256;9.356;2022-12-05T09:37:15;100792.22;;;2.73;100.00
40073;BME280;25774;52.256;9.356;2022-12-05T09:39:43;100785.31;;;2.71;100.00
40073;BME280;25774;52.256;9.356;2022-12-05T09:53:06;100785.41;;;2.66;100.00
40073;BME280;25774;52.256;9.356;2022-12-05T09:58:45;100785.34;;;2.69;100.00
40073;BME280;25774;52.256;9.356;2022-12-05T10:01:40;100786.47;;;2.54;100.00
40073;BME280;25774;52.256;9.356;2022-12-05T10:10:16;100776.44;;;2.83;100.00
40073;BME280;25774;52.256;9.356;2022-12-05T10:15:39;100785.69;;;3.00;100.00
40073;BME280;25774;52.256;9.356;2022-12-05T10:20:55;100790.31;;;3.31;100.00
40073;BME280;25774;52.256;9.356;2022-12-05T10:23:26;100774.00;;;3.21;100.00
40073;BME280;25774;52.256;9.356;2022-12-05T10:26:01;100768.28;;;3.01;100.00
40073;BME280;25774;52.256;9.356;2022-12-05T10:31:16;100766.44;;;3.06;100.00
40073;BME280;25774;52.256;9.356;2022-12-05T10:33:46;100779.53;;;3.05;100.00
40073;BME280;25774;52.256;9.356;2022-12-05T10:36:14;100777.66;;;3.13;100.00
40073;BME280;25774;52.256;9.356;2022-12-05T10:38:44;100777.44;;;3.22;100.00
40073;BME280;25774;52.256;9.356;2022-12-05T10:41:12;100778.06;;;3.35;100.00
40073;BME280;25774;52.256;9.356;2022-12-05T10:43:42;100779.28;;;3.62;100.00
40073;BME280;25774;52.256;9.356;2022-12-05T10:46:09;100782.63;;;3.68;100.00
40073;BME280;25774;52.256;9.356;2022-12-05T10:48:39;100769.03;;;3.53;100.00
40073;BME280;25774;52.256;9.356;2022-12-05T10:51:06;100745.47;;;3.14;100.00
40073;BME280;25774;52.256;9.356;2022-12-05T10:53:49;100759.00;;;3.31;100.00
40073;BME280;25774;52.256;9.356;2022-12-05T10:56:37;100777.16;;;3.79;100.00
40073;BME280;25774;52.256;9.356;2022-12-05T10:59:04;100756.28;;;3.39;100.00
40073;BME280;25774;52.256;9.356;2022-12-05T11:01:30;100746.88;;;3.29;100.00
40073;BME280;25774;52.256;9.356;2022-12-05T11:04:09;100755.19;;;3.49;100.00
40073;BME280;25774;52.256;9.356;2022-12-05T11:06:34;100759.31;;;3.59;100.00
40073;BME280;25774;52.256;9.356;2022-12-05T11:09:16;100761.41;;;3.84;100.00
40073;BME280;25774;52.256;9.356;2022-12-05T11:11:57;100750.19;;;3.79;100.00
40073;BME280;25774;52.256;9.356;2022-12-05T11:14:25;100740.03;;;3.66;100.00
40073;BME280;25774;52.256;9.356;2022-12-05T11:16:56;100739.75;;;3.79;100.00
40073;BME280;25774;52.256;9.356;2022-12-05T11:19:26;100745.56;;;3.91;100.00
40073;BME280;25774;52.256;9.356;2022-12-05T11:21:53;100740.63;;;3.79;100.00
40073;BME280;25774;52.256;9.356;2022-12-05T11:24:21;100732.66;;;3.85;100.00
40073;BME280;25774;52.256;9.356;2022-12-05T11:26:49;100734.41;;;3.85;100.00
40073;BME280;25774;52.256;9.356;2022-12-05T11:29:37;100730.03;;;3.87;100.00
40073;BME280;25774;52.256;9.356;2022-12-05T11:32:07;100719.91;;;3.71;100.00
40073;BME280;25774;52.256;9.356;2022-12-05T11:35:44;100719.06;;;3.71;100.00
40073;BME280;25774;52.256;9.356;2022-12-05T11:37:53;100720.53;;;3.83;100.00
40073;BME280;25774;52.256;9.356;2022-12-05T11:48:38;100703.34;;;3.74;100.00
40073;BME280;25774;52.256;9.356;2022-12-05T11:51:25;100692.38;;;3.58;100.00
40073;BME280;25774;52.256;9.356;2022-12-05T11:57:01;100686.69;;;3.38;100.00
40073;BME280;25774;52.256;9.356;2022-12-05T12:00:02;100705.38;;;3.60;100.00
40073;BME280;25774;52.256;9.356;2022-12-05T12:08:29;100709.09;;;3.88;100.00
40073;BME280;25774;52.256;9.356;2022-12-05T12:11:14;100697.97;;;3.80;100.00
40073;BME280;25774;52.256;9.356;2022-12-05T12:27:54;100675.94;;;3.92;100.00
40073;BME280;25774;52.256;9.356;2022-12-05T12:30:14;100668.31;;;3.83;100.00
40073;BME280;25774;52.256;9.356;2022-12-05T12:35:27;100647.50;;;3.42;100.00
40073;BME280;25774;52.256;9.356;2022-12-05T12:40:48;100675.78;;;3.20;100.00
40073;BME280;25774;52.256;9.356;2022-12-05T12:43:40;100682.03;;;3.13;100.00
40073;BME280;25774;52.256;9.356;2022-12-05T12:51:31;100673.63;;;2.52;100.00
40073;BME280;25774;52.256;9.356;2022-12-05T13:02:55;100710.13;;;2.97;100.00
40073;BME280;25774;52.256;9.356;2022-12-05T13:05:14;100714.13;;;3.15;100.00
40073;BME280;25774;52.256;9.356;2022-12-05T13:08:15;100723.03;;;3.47;100.00
40073;BME280;25774;52.256;9.356;2022-12-05T13:10:46;100717.16;;;3.37;100.00
40073;BME280;25774;52.256;9.356;2022-12-05T13:13:17;100713.41;;;3.50;100.00
40073;BME280;25774;52.256;9.356;2022-12-05T13:15:50;100696.72;;;3.16;100.00
40073;BME280;25774;52.256;9.356;2022-12-05T13:18:19;100705.19;;;3.27;100.00
40073;BME280;25774;52.256;9.356;2022-12-05T13:20:48;100690.03;;;3.02;100.00
40073;BME280;25774;52.256;9.356;2022-12-05T13:23:17;100718.66;;;3.49;100.00
40073;BME280;25774;52.256;9.356;2022-12-05T13:25:43;100698.81;;;3.00;100.00
40073;BME280;25774;52.256;9.356;2022-12-05T13:28:29;100714.72;;;3.28;100.00
40073;BME280;25774;52.256;9.356;2022-12-05T13:30:57;100714.59;;;3.36;100.00
40073;BME280;25774;52.256;9.356;2022-12-05T13:33:34;100716.28;;;3.38;100.00
40073;BME280;25774;52.256;9.356;2022-12-05T13:36:26;100727.75;;;3.70;100.00
40073;BME280;25774;52.256;9.356;2022-12-05T13:41:57;100709.34;;;3.78;100.00
40073;BME280;25774;52.256;9.356;2022-12-05T13:44:45;100678.44;;;3.17;100.00
40073;BME280;25774;52.256;9.356;2022-12-05T13:47:39;100676.50;;;2.84;100.00
40073;BME280;25774;52.256;9.356;2022-12-05T13:50:19;100697.13;;;3.38;100.00
40073;BME280;25774;52.256;9.356;2022-12-05T13:52:50;100696.09;;;3.46;100.00
40073;BME280;25774;52.256;9.356;2022-12-05T13:55:27;100702.63;;;3.66;100.00
40073;BME280;25774;52.256;9.356;2022-12-05T13:57:58;100694.72;;;3.70;100.00
40073;BME280;25774;52.256;9.356;2022-12-05T14:00:34;100681.34;;;3.44;100.00
40073;BME280;25774;52.256;9.356;2022-12-05T14:05:51;100689.91;;;3.52;100.00
40073;BME280;25774;52.256;9.356;2022-12-05T14:15:40;100691.88;;;3.80;100.00
40073;BME280;25774;52.256;9.356;2022-12-05T14:21:45;100683.25;;;3.76;100.00
40073;BME280;25774;52.256;9.356;2022-12-05T14:24:53;100683.31;;;3.75;100.00
40073;BME280;25774;52.256;9.356;2022-12-05T14:30:24;100679.72;;;3.79;100.00
40073;BME280;25774;52.256;9.356;2022-12-05T14:32:59;100671.38;;;3.64;100.00
40073;BME280;25774;52.256;9.356;2022-12-05T14:35:44;100685.78;;;3.79;100.00
40073;BME280;25774;52.256;9.356;2022-12-05T14:38:27;100674.63;;;3.74;100.00
40073;BME280;25774;52.256;9.356;2022-12-05T14:40:54;100661.31;;;3.46;100.00
40073;BME280;25774;52.256;9.356;2022-12-05T14:43:32;100679.13;;;3.67;100.00
40073;BME280;25774;52.256;9.356;2022-12-05T14:46:04;100673.91;;;3.67;100.00
40073;BME280;25774;52.256;9.356;2022-12-05T14:48:35;100688.47;;;3.78;100.00
40073;BME280;25774;52.256;9.356;2022-12-05T14:54:16;100673.06;;;3.65;100.00
40073;BME280;25774;52.256;9.356;2022-12-05T14:56:45;100658.50;;;3.55;100.00
40073;BME280;25774;52.256;9.356;2022-12-05T14:59:22;100685.06;;;3.72;100.00
40073;BME280;25774;52.256;9.356;2022-12-05T15:01:54;100675.63;;;3.68;100.00
40073;BME280;25774;52.256;9.356;2022-12-05T15:07:08;100680.03;;;3.65;100.00
40073;BME280;25774;52.256;9.356;2022-12-05T15:12:58;100686.13;;;3.65;100.00
40073;BME280;25774;52.256;9.356;2022-12-05T15:15:11;100692.44;;;3.55;100.00